sensor_id;sensor_type;location;lat;lon;timestamp;P1;durP1;ratioP1;P2;durP2;ratioP2
6394;SDS011;3230;42.588;23.358;2023-03-14T00:02:10;5.60;;;3.40;;
6394;SDS011;3230;42.588;23.358;2023-03-14T00:04:36;6.30;;;3.70;;
6394;SDS011;3230;42.588;23.358;2023-03-14T00:07:01;8.20;;;4.00;;
6394;SDS011;3230;42.588;23.358;2023-03-14T00:09:26;7.53;;;3.27;;
6394;SDS011;3230;42.588;23.358;2023-03-14T00:11:54;4.90;;;2.80;;
6394;SDS011;3230;42.588;23.358;2023-03-14T00:14:20;6.53;;;3.10;;
6394;SDS011;3230;42.588;23.358;2023-03-14T00:16:45;6.00;;;3.23;;
6394;SDS011;3230;42.588;23.358;2023-03-14T00:19:11;6.13;;;3.33;;
6394;SDS011;3230;42.588;23.358;2023-03-14T00:21:36;6.00;;;3.70;;
6394;SDS011;3230;42.588;23.358;2023-03-14T00:24:01;9.03;;;4.80;;
6394;SDS011;3230;42.588;23.358;2023-03-14T00:26:26;7.60;;;3.80;;
6394;SDS011;3230;42.588;23.358;2023-03-14T00:28:52;7.60;;;4.03;;
6394;SDS011;3230;42.588;23.358;2023-03-14T00:31:18;10.18;;;4.55;;
6394;SDS011;3230;42.588;23.358;2023-03-14T00:33:44;7.40;;;4.50;;
6394;SDS011;3230;42.588;23.358;2023-03-14T00:36:10;10.23;;;5.00;;
6394;SDS011;3230;42.588;23.358;2023-03-14T00:38:36;8.07;;;3.70;;
6394;SDS011;3230;42.588;23.358;2023-03-14T00:41:05;4.43;;;2.70;;
6394;SDS011;3230;42.588;23.358;2023-03-14T00:43:31;4.35;;;2.80;;
6394;SDS011;3230;42.588;23.358;2023-03-14T00:45:56;4.70;;;2.50;;
6394;SDS011;3230;42.588;23.358;2023-03-14T00:48:22;3.73;;;2.80;;
6394;SDS011;3230;42.588;23.358;2023-03-14T00:50:47;4.60;;;2.83;;
6394;SDS011;3230;42.588;23.358;2023-03-14T00:53:13;6.23;;;3.73;;
6394;SDS011;3230;42.588;23.358;2023-03-14T00:55:39;8.10;;;4.13;;
6394;SDS011;3230;42.588;23.358;2023-03-14T00:58:04;5.75;;;2.80;;
6394;SDS011;3230;42.588;23.358;2023-03-14T01:00:29;4.47;;;3.00;;
6394;SDS011;3230;42.588;23.358;2023-03-14T01:02:55;7.23;;;4.00;;
6394;SDS011;3230;42.588;23.358;2023-03-14T01:05:21;6.07;;;3.90;;
6394;SDS011;3230;42.588;23.358;2023-03-14T01:07:47;5.63;;;3.22;;
6394;SDS011;3230;42.588;23.358;2023-03-14T01:10:12;7.23;;;3.60;;
6394;SDS011;3230;42.588;23.358;2023-03-14T01:12:37;3.90;;;2.80;;
6394;SDS011;3230;42.588;23.358;2023-03-14T01:15:02;3.70;;;2.47;;
6394;SDS011;3230;42.588;23.358;2023-03-14T01:17:28;4.10;;;2.97;;
6394;SDS011;3230;42.588;23.358;2023-03-14T01:19:53;6.67;;;2.70;;
6394;SDS011;3230;42.588;23.358;2023-03-14T01:22:18;8.37;;;4.60;;
6394;SDS011;3230;42.588;23.358;2023-03-14T01:24:46;11.48;;;5.22;;
6394;SDS011;3230;42.588;23.358;2023-03-14T01:27:11;8.87;;;4.30;;
6394;SDS011;3230;42.588;23.358;2023-03-14T01:29:36;8.73;;;3.97;;
6394;SDS011;3230;42.588;23.358;2023-03-14T01:32:01;9.97;;;4.73;;
6394;SDS011;3230;42.588;23.358;2023-03-14T01:34:27;9.80;;;4.70;;
6394;SDS011;3230;42.588;23.358;2023-03-14T01:36:52;9.50;;;4.53;;
6394;SDS011;3230;42.588;23.358;2023-03-14T01:39:17;11.43;;;5.90;;
6394;SDS011;3230;42.588;23.358;2023-03-14T01:41:42;14.67;;;6.03;;
6394;SDS011;3230;42.588;23.358;2023-03-14T01:44:11;19.63;;;6.87;;
6394;SDS011;3230;42.588;23.358;2023-03-14T01:46:37;13.13;;;6.90;;
6394;SDS011;3230;42.588;23.358;2023-03-14T01:49:04;11.85;;;6.10;;
6394;SDS011;3230;42.588;23.358;2023-03-14T01:51:39;8.05;;;4.65;;
6394;SDS011;3230;42.588;23.358;2023-03-14T01:54:10;7.38;;;4.38;;
6394;SDS011;3230;42.588;23.358;2023-03-14T01:56:36;7.97;;;3.60;;
6394;SDS011;3230;42.588;23.358;2023-03-14T01:59:04;10.80;;;3.67;;
6394;SDS011;3230;42.588;23.358;2023-03-14T02:01:31;5.22;;;3.45;;
6394;SDS011;3230;42.588;23.358;2023-03-14T02:03:59;12.87;;;5.80;;
6394;SDS011;3230;42.588;23.358;2023-03-14T02:06:31;19.77;;;7.95;;
6394;SDS011;3230;42.588;23.358;2023-03-14T02:08:58;11.43;;;6.35;;
6394;SDS011;3230;42.588;23.358;2023-03-14T02:11:25;9.02;;;5.90;;
6394;SDS011;3230;42.588;23.358;2023-03-14T02:13:51;21.80;;;11.10;;
6394;SDS011;3230;42.588;23.358;2023-03-14T02:16:16;17.00;;;9.20;;
6394;SDS011;3230;42.588;23.358;2023-03-14T02:18:42;16.03;;;7.80;;
6394;SDS011;3230;42.588;23.358;2023-03-14T02:23:41;18.48;;;8.38;;
6394;SDS011;3230;42.588;23.358;2023-03-14T02:26:10;13.80;;;6.95;;
6394;SDS011;3230;42.588;23.358;2023-03-14T02:28:36;11.95;;;5.85;;
6394;SDS011;3230;42.588;23.358;2023-03-14T02:31:01;7.53;;;4.13;;
6394;SDS011;3230;42.588;23.358;2023-03-14T02:33:27;6.33;;;3.47;;
6394;SDS011;3230;42.588;23.358;2023-03-14T02:35:53;5.87;;;3.40;;
6394;SDS011;3230;42.588;23.358;2023-03-14T02:40:46;6.33;;;3.87;;
6394;SDS011;3230;42.588;23.358;2023-03-14T02:43:11;8.10;;;3.77;;
6394;SDS011;3230;42.588;23.358;2023-03-14T02:45:38;5.80;;;3.93;;
6394;SDS011;3230;42.588;23.358;2023-03-14T02:50:59;4.68;;;3.10;;
6394;SDS011;3230;42.588;23.358;2023-03-14T02:53:26;5.00;;;2.85;;
6394;SDS011;3230;42.588;23.358;2023-03-14T02:55:51;7.35;;;2.83;;
6394;SDS011;3230;42.588;23.358;2023-03-14T02:58:17;4.13;;;2.37;;
6394;SDS011;3230;42.588;23.358;2023-03-14T03:00:43;4.15;;;3.00;;
6394;SDS011;3230;42.588;23.358;2023-03-14T03:03:08;2.77;;;2.57;;
6394;SDS011;3230;42.588;23.358;2023-03-14T03:05:33;4.33;;;2.40;;
6394;SDS011;3230;42.588;23.358;2023-03-14T03:07:59;3.93;;;2.20;;
6394;SDS011;3230;42.588;23.358;2023-03-14T03:10:25;4.60;;;2.17;;
6394;SDS011;3230;42.588;23.358;2023-03-14T03:12:50;3.17;;;2.20;;
6394;SDS011;3230;42.588;23.358;2023-03-14T03:15:16;3.20;;;1.93;;
6394;SDS011;3230;42.588;23.358;2023-03-14T03:17:42;4.50;;;2.60;;
6394;SDS011;3230;42.588;23.358;2023-03-14T03:20:07;6.10;;;2.90;;
6394;SDS011;3230;42.588;23.358;2023-03-14T03:22:34;5.05;;;2.70;;
6394;SDS011;3230;42.588;23.358;2023-03-14T03:24:59;3.90;;;2.80;;
6394;SDS011;3230;42.588;23.358;2023-03-14T03:27:24;3.13;;;2.27;;
6394;SDS011;3230;42.588;23.358;2023-03-14T03:29:50;5.40;;;3.17;;
6394;SDS011;3230;42.588;23.358;2023-03-14T03:32:15;6.97;;;3.20;;
6394;SDS011;3230;42.588;23.358;2023-03-14T03:34:41;14.60;;;6.33;;
6394;SDS011;3230;42.588;23.358;2023-03-14T03:37:06;14.13;;;6.07;;
6394;SDS011;3230;42.588;23.358;2023-03-14T03:39:31;10.07;;;4.70;;
6394;SDS011;3230;42.588;23.358;2023-03-14T03:41:56;8.30;;;4.73;;
6394;SDS011;3230;42.588;23.358;2023-03-14T03:44:22;5.43;;;3.53;;
6394;SDS011;3230;42.588;23.358;2023-03-14T03:46:47;8.23;;;3.70;;
6394;SDS011;3230;42.588;23.358;2023-03-14T03:49:12;4.37;;;3.00;;
6394;SDS011;3230;42.588;23.358;2023-03-14T03:51:37;3.90;;;2.50;;
6394;SDS011;3230;42.588;23.358;2023-03-14T03:54:04;5.53;;;3.20;;
6394;SDS011;3230;42.588;23.358;2023-03-14T03:56:29;6.13;;;3.40;;
6394;SDS011;3230;42.588;23.358;2023-03-14T03:58:56;6.65;;;3.30;;
6394;SDS011;3230;42.588;23.358;2023-03-14T04:01:21;5.13;;;2.93;;
6394;SDS011;3230;42.588;23.358;2023-03-14T04:03:46;4.40;;;2.93;;
6394;SDS011;3230;42.588;23.358;2023-03-14T04:06:12;10.93;;;6.07;;
6394;SDS011;3230;42.588;23.358;2023-03-14T04:08:38;6.87;;;4.60;;
6394;SDS011;3230;42.588;23.358;2023-03-14T04:11:04;8.45;;;4.30;;
6394;SDS011;3230;42.588;23.358;2023-03-14T04:13:29;5.00;;;3.23;;
6394;SDS011;3230;42.588;23.358;2023-03-14T04:15:54;4.77;;;3.47;;
6394;SDS011;3230;42.588;23.358;2023-03-14T04:18:20;4.47;;;3.00;;
6394;SDS011;3230;42.588;23.358;2023-03-14T04:20:50;3.73;;;2.97;;
6394;SDS011;3230;42.588;23.358;2023-03-14T04:23:15;3.63;;;2.90;;
6394;SDS011;3230;42.588;23.358;2023-03-14T04:25:41;4.57;;;2.70;;
6394;SDS011;3230;42.588;23.358;2023-03-14T04:28:06;2.83;;;2.07;;
6394;SDS011;3230;42.588;23.358;2023-03-14T04:30:31;2.83;;;2.53;;
6394;SDS011;3230;42.588;23.358;2023-03-14T04:32:56;3.97;;;2.17;;
6394;SDS011;3230;42.588;23.358;2023-03-14T04:35:21;2.30;;;2.10;;
6394;SDS011;3230;42.588;23.358;2023-03-14T04:37:47;2.37;;;1.90;;
6394;SDS011;3230;42.588;23.358;2023-03-14T04:40:14;2.17;;;1.88;;
6394;SDS011;3230;42.588;23.358;2023-03-14T04:42:39;4.53;;;2.67;;
6394;SDS011;3230;42.588;23.358;2023-03-14T04:45:04;5.00;;;2.60;;
6394;SDS011;3230;42.588;23.358;2023-03-14T04:47:30;6.10;;;2.90;;
6394;SDS011;3230;42.588;23.358;2023-03-14T04:49:55;6.70;;;2.43;;
6394;SDS011;3230;42.588;23.358;2023-03-14T04:52:20;2.40;;;2.20;;
6394;SDS011;3230;42.588;23.358;2023-03-14T04:54:45;3.47;;;2.30;;
6394;SDS011;3230;42.588;23.358;2023-03-14T04:57:11;1.70;;;1.60;;
6394;SDS011;3230;42.588;23.358;2023-03-14T04:59:36;2.80;;;2.00;;
6394;SDS011;3230;42.588;23.358;2023-03-14T05:02:01;1.63;;;1.53;;
6394;SDS011;3230;42.588;23.358;2023-03-14T05:04:26;2.07;;;1.87;;
6394;SDS011;3230;42.588;23.358;2023-03-14T05:06:52;1.63;;;1.53;;
6394;SDS011;3230;42.588;23.358;2023-03-14T05:09:17;4.90;;;2.03;;
6394;SDS011;3230;42.588;23.358;2023-03-14T05:11:42;4.90;;;1.97;;
6394;SDS011;3230;42.588;23.358;2023-03-14T05:14:07;4.20;;;2.43;;
6394;SDS011;3230;42.588;23.358;2023-03-14T05:16:33;3.33;;;1.80;;
6394;SDS011;3230;42.588;23.358;2023-03-14T05:18:58;1.90;;;1.60;;
6394;SDS011;3230;42.588;23.358;2023-03-14T05:21:23;2.43;;;1.90;;
6394;SDS011;3230;42.588;23.358;2023-03-14T05:23:48;1.83;;;1.60;;
6394;SDS011;3230;42.588;23.358;2023-03-14T05:26:14;5.37;;;2.00;;
6394;SDS011;3230;42.588;23.358;2023-03-14T05:28:41;4.35;;;2.30;;
6394;SDS011;3230;42.588;23.358;2023-03-14T05:31:07;3.60;;;1.50;;
6394;SDS011;3230;42.588;23.358;2023-03-14T05:33:32;3.03;;;1.77;;
6394;SDS011;3230;42.588;23.358;2023-03-14T05:35:58;5.80;;;2.30;;
6394;SDS011;3230;42.588;23.358;2023-03-14T05:38:23;5.13;;;3.03;;
6394;SDS011;3230;42.588;23.358;2023-03-14T05:40:48;8.87;;;5.90;;
6394;SDS011;3230;42.588;23.358;2023-03-14T05:43:13;16.53;;;8.60;;
6394;SDS011;3230;42.588;23.358;2023-03-14T05:45:40;18.30;;;9.00;;
6394;SDS011;3230;42.588;23.358;2023-03-14T05:48:05;14.10;;;7.43;;
6394;SDS011;3230;42.588;23.358;2023-03-14T05:50:31;18.27;;;10.80;;
6394;SDS011;3230;42.588;23.358;2023-03-14T05:52:56;21.77;;;10.47;;
6394;SDS011;3230;42.588;23.358;2023-03-14T05:55:21;14.23;;;6.17;;
6394;SDS011;3230;42.588;23.358;2023-03-14T05:57:46;14.63;;;5.60;;
6394;SDS011;3230;42.588;23.358;2023-03-14T06:00:12;14.73;;;4.90;;
6394;SDS011;3230;42.588;23.358;2023-03-14T06:02:37;8.93;;;5.30;;
6394;SDS011;3230;42.588;23.358;2023-03-14T06:05:02;12.77;;;5.57;;
6394;SDS011;3230;42.588;23.358;2023-03-14T06:07:28;6.93;;;4.50;;
6394;SDS011;3230;42.588;23.358;2023-03-14T06:09:53;9.43;;;5.90;;
6394;SDS011;3230;42.588;23.358;2023-03-14T06:12:18;11.97;;;5.90;;
6394;SDS011;3230;42.588;23.358;2023-03-14T06:14:44;9.40;;;5.57;;
6394;SDS011;3230;42.588;23.358;2023-03-14T06:17:09;9.03;;;4.50;;
6394;SDS011;3230;42.588;23.358;2023-03-14T06:19:34;5.90;;;4.23;;
6394;SDS011;3230;42.588;23.358;2023-03-14T06:22:00;7.77;;;3.73;;
6394;SDS011;3230;42.588;23.358;2023-03-14T06:24:25;6.00;;;4.10;;
6394;SDS011;3230;42.588;23.358;2023-03-14T06:26:50;10.10;;;5.70;;
6394;SDS011;3230;42.588;23.358;2023-03-14T06:29:15;9.53;;;3.93;;
6394;SDS011;3230;42.588;23.358;2023-03-14T06:31:41;5.33;;;3.60;;
6394;SDS011;3230;42.588;23.358;2023-03-14T06:34:06;8.13;;;4.20;;
6394;SDS011;3230;42.588;23.358;2023-03-14T06:36:31;8.00;;;4.03;;
6394;SDS011;3230;42.588;23.358;2023-03-14T06:38:56;5.93;;;4.30;;
6394;SDS011;3230;42.588;23.358;2023-03-14T06:41:22;5.90;;;3.93;;
6394;SDS011;3230;42.588;23.358;2023-03-14T06:43:50;11.80;;;6.27;;
6394;SDS011;3230;42.588;23.358;2023-03-14T06:46:16;17.97;;;5.73;;
6394;SDS011;3230;42.588;23.358;2023-03-14T06:48:41;9.53;;;6.90;;
6394;SDS011;3230;42.588;23.358;2023-03-14T06:51:06;9.37;;;6.00;;
6394;SDS011;3230;42.588;23.358;2023-03-14T06:53:32;11.10;;;5.70;;
6394;SDS011;3230;42.588;23.358;2023-03-14T06:55:57;7.00;;;5.03;;
6394;SDS011;3230;42.588;23.358;2023-03-14T06:58:23;7.70;;;4.50;;
6394;SDS011;3230;42.588;23.358;2023-03-14T07:00:48;14.33;;;5.00;;
6394;SDS011;3230;42.588;23.358;2023-03-14T07:03:14;6.73;;;4.77;;
6394;SDS011;3230;42.588;23.358;2023-03-14T07:05:39;4.83;;;3.80;;
6394;SDS011;3230;42.588;23.358;2023-03-14T07:08:05;6.70;;;4.47;;
6394;SDS011;3230;42.588;23.358;2023-03-14T07:10:31;5.93;;;4.43;;
6394;SDS011;3230;42.588;23.358;2023-03-14T07:12:56;5.07;;;4.40;;
6394;SDS011;3230;42.588;23.358;2023-03-14T07:15:21;10.40;;;4.53;;
6394;SDS011;3230;42.588;23.358;2023-03-14T07:17:46;6.30;;;4.70;;
6394;SDS011;3230;42.588;23.358;2023-03-14T07:20:15;5.00;;;4.30;;
6394;SDS011;3230;42.588;23.358;2023-03-14T07:22:40;7.10;;;5.40;;
6394;SDS011;3230;42.588;23.358;2023-03-14T07:25:05;7.43;;;4.63;;
6394;SDS011;3230;42.588;23.358;2023-03-14T07:27:31;8.57;;;4.60;;
6394;SDS011;3230;42.588;23.358;2023-03-14T07:29:56;11.03;;;4.87;;
6394;SDS011;3230;42.588;23.358;2023-03-14T07:32:21;10.23;;;4.57;;
6394;SDS011;3230;42.588;23.358;2023-03-14T07:34:47;7.40;;;4.43;;
6394;SDS011;3230;42.588;23.358;2023-03-14T07:37:12;6.67;;;4.67;;
6394;SDS011;3230;42.588;23.358;2023-03-14T07:39:37;6.83;;;4.50;;
6394;SDS011;3230;42.588;23.358;2023-03-14T07:42:02;5.70;;;4.57;;
6394;SDS011;3230;42.588;23.358;2023-03-14T07:44:28;5.20;;;4.27;;
6394;SDS011;3230;42.588;23.358;2023-03-14T07:46:53;5.93;;;4.20;;
6394;SDS011;3230;42.588;23.358;2023-03-14T07:49:18;6.47;;;4.30;;
6394;SDS011;3230;42.588;23.358;2023-03-14T07:53:32;7.40;;;4.17;;
6394;SDS011;3230;42.588;23.358;2023-03-14T07:55:57;7.70;;;4.40;;
6394;SDS011;3230;42.588;23.358;2023-03-14T07:58:23;4.90;;;4.00;;
6394;SDS011;3230;42.588;23.358;2023-03-14T08:00:48;6.13;;;4.63;;
6394;SDS011;3230;42.588;23.358;2023-03-14T08:06:09;7.17;;;4.50;;
6394;SDS011;3230;42.588;23.358;2023-03-14T08:08:34;9.03;;;4.50;;
6394;SDS011;3230;42.588;23.358;2023-03-14T08:11:04;5.80;;;4.70;;
6394;SDS011;3230;42.588;23.358;2023-03-14T08:13:31;7.20;;;4.70;;
6394;SDS011;3230;42.588;23.358;2023-03-14T08:15:56;15.03;;;4.87;;
6394;SDS011;3230;42.588;23.358;2023-03-14T08:18:22;8.40;;;5.93;;
6394;SDS011;3230;42.588;23.358;2023-03-14T08:20:47;5.90;;;4.43;;
6394;SDS011;3230;42.588;23.358;2023-03-14T08:23:12;7.40;;;5.13;;
6394;SDS011;3230;42.588;23.358;2023-03-14T08:25:38;9.33;;;5.47;;
6394;SDS011;3230;42.588;23.358;2023-03-14T08:28:04;10.73;;;5.90;;
6394;SDS011;3230;42.588;23.358;2023-03-14T08:30:29;7.30;;;5.30;;
6394;SDS011;3230;42.588;23.358;2023-03-14T08:32:58;8.97;;;6.17;;
6394;SDS011;3230;42.588;23.358;2023-03-14T08:35:24;8.13;;;5.83;;
6394;SDS011;3230;42.588;23.358;2023-03-14T08:37:50;9.63;;;5.90;;
6394;SDS011;3230;42.588;23.358;2023-03-14T08:40:17;8.27;;;6.30;;
6394;SDS011;3230;42.588;23.358;2023-03-14T08:42:43;9.10;;;5.80;;
6394;SDS011;3230;42.588;23.358;2023-03-14T08:45:10;9.63;;;5.93;;
6394;SDS011;3230;42.588;23.358;2023-03-14T08:47:37;8.87;;;6.30;;
6394;SDS011;3230;42.588;23.358;2023-03-14T08:50:03;10.27;;;6.00;;
6394;SDS011;3230;42.588;23.358;2023-03-14T08:52:30;7.07;;;6.10;;
6394;SDS011;3230;42.588;23.358;2023-03-14T08:54:56;8.00;;;6.07;;
6394;SDS011;3230;42.588;23.358;2023-03-14T08:57:22;9.70;;;6.30;;
6394;SDS011;3230;42.588;23.358;2023-03-14T08:59:52;10.47;;;6.57;;
6394;SDS011;3230;42.588;23.358;2023-03-14T09:02:21;9.60;;;6.57;;
6394;SDS011;3230;42.588;23.358;2023-03-14T09:04:49;13.20;;;6.07;;
6394;SDS011;3230;42.588;23.358;2023-03-14T09:07:15;8.73;;;6.00;;
6394;SDS011;3230;42.588;23.358;2023-03-14T09:09:40;11.23;;;6.10;;
6394;SDS011;3230;42.588;23.358;2023-03-14T09:12:06;9.10;;;5.90;;
6394;SDS011;3230;42.588;23.358;2023-03-14T09:14:31;9.70;;;5.87;;
6394;SDS011;3230;42.588;23.358;2023-03-14T09:16:57;8.43;;;5.40;;
6394;SDS011;3230;42.588;23.358;2023-03-14T09:19:23;7.40;;;5.43;;
6394;SDS011;3230;42.588;23.358;2023-03-14T09:21:48;8.73;;;5.03;;
6394;SDS011;3230;42.588;23.358;2023-03-14T09:24:14;13.93;;;6.10;;
6394;SDS011;3230;42.588;23.358;2023-03-14T09:26:40;10.33;;;5.57;;
6394;SDS011;3230;42.588;23.358;2023-03-14T09:29:05;7.73;;;5.20;;
6394;SDS011;3230;42.588;23.358;2023-03-14T09:31:30;8.33;;;5.03;;
6394;SDS011;3230;42.588;23.358;2023-03-14T09:33:56;8.10;;;5.00;;
6394;SDS011;3230;42.588;23.358;2023-03-14T09:36:22;14.10;;;6.00;;
6394;SDS011;3230;42.588;23.358;2023-03-14T09:38:47;9.50;;;6.00;;
6394;SDS011;3230;42.588;23.358;2023-03-14T09:41:15;8.77;;;5.27;;
6394;SDS011;3230;42.588;23.358;2023-03-14T09:43:46;9.83;;;5.67;;
6394;SDS011;3230;42.588;23.358;2023-03-14T09:46:15;9.87;;;5.00;;
6394;SDS011;3230;42.588;23.358;2023-03-14T09:48:41;11.57;;;5.67;;
6394;SDS011;3230;42.588;23.358;2023-03-14T09:51:15;7.17;;;4.67;;
6394;SDS011;3230;42.588;23.358;2023-03-14T09:53:44;9.93;;;5.43;;
6394;SDS011;3230;42.588;23.358;2023-03-14T09:56:16;7.60;;;5.40;;
6394;SDS011;3230;42.588;23.358;2023-03-14T09:58:47;8.63;;;5.50;;
6394;SDS011;3230;42.588;23.358;2023-03-14T10:01:16;8.63;;;5.27;;
6394;SDS011;3230;42.588;23.358;2023-03-14T10:03:47;12.90;;;6.00;;
6394;SDS011;3230;42.588;23.358;2023-03-14T10:06:12;18.30;;;5.70;;
6394;SDS011;3230;42.588;23.358;2023-03-14T10:08:39;7.70;;;5.13;;
6394;SDS011;3230;42.588;23.358;2023-03-14T10:11:09;8.20;;;5.30;;
6394;SDS011;3230;42.588;23.358;2023-03-14T10:13:46;9.43;;;5.20;;
6394;SDS011;3230;42.588;23.358;2023-03-14T10:16:32;8.97;;;5.40;;
6394;SDS011;3230;42.588;23.358;2023-03-14T10:19:06;6.73;;;4.60;;
6394;SDS011;3230;42.588;23.358;2023-03-14T10:21:36;9.27;;;5.67;;
6394;SDS011;3230;42.588;23.358;2023-03-14T10:24:36;12.77;;;4.80;;
6394;SDS011;3230;42.588;23.358;2023-03-14T10:27:04;7.37;;;4.57;;
6394;SDS011;3230;42.588;23.358;2023-03-14T10:29:34;11.07;;;4.90;;
6394;SDS011;3230;42.588;23.358;2023-03-14T10:32:18;9.13;;;4.50;;
6394;SDS011;3230;42.588;23.358;2023-03-14T10:34:45;6.97;;;4.33;;
6394;SDS011;3230;42.588;23.358;2023-03-14T10:37:30;8.93;;;4.90;;
6394;SDS011;3230;42.588;23.358;2023-03-14T10:39:57;8.50;;;5.40;;
6394;SDS011;3230;42.588;23.358;2023-03-14T10:42:30;6.80;;;4.77;;
6394;SDS011;3230;42.588;23.358;2023-03-14T10:45:06;15.57;;;4.13;;
6394;SDS011;3230;42.588;23.358;2023-03-14T10:47:48;7.77;;;4.37;;
6394;SDS011;3230;42.588;23.358;2023-03-14T10:50:28;7.40;;;4.13;;
6394;SDS011;3230;42.588;23.358;2023-03-14T10:52:55;6.50;;;4.03;;
6394;SDS011;3230;42.588;23.358;2023-03-14T10:55:23;6.23;;;4.53;;
6394;SDS011;3230;42.588;23.358;2023-03-14T10:57:50;7.13;;;5.10;;
6394;SDS011;3230;42.588;23.358;2023-03-14T11:00:20;9.63;;;4.90;;
6394;SDS011;3230;42.588;23.358;2023-03-14T11:03:04;13.90;;;5.20;;
6394;SDS011;3230;42.588;23.358;2023-03-14T11:17:02;6.40;;;4.20;;
6394;SDS011;3230;42.588;23.358;2023-03-14T11:22:23;5.77;;;3.40;;
6394;SDS011;3230;42.588;23.358;2023-03-14T11:27:42;6.40;;;3.97;;
6394;SDS011;3230;42.588;23.358;2023-03-14T11:30:16;4.00;;;3.13;;
6394;SDS011;3230;42.588;23.358;2023-03-14T11:35:34;7.30;;;3.43;;
6394;SDS011;3230;42.588;23.358;2023-03-14T11:38:11;8.30;;;3.73;;
6394;SDS011;3230;42.588;23.358;2023-03-14T11:40:43;4.33;;;3.13;;
6394;SDS011;3230;42.588;23.358;2023-03-14T11:43:14;7.10;;;3.60;;
6394;SDS011;3230;42.588;23.358;2023-03-14T11:45:45;4.10;;;2.77;;
6394;SDS011;3230;42.588;23.358;2023-03-14T11:48:20;5.60;;;3.03;;
6394;SDS011;3230;42.588;23.358;2023-03-14T11:50:56;5.30;;;3.50;;
6394;SDS011;3230;42.588;23.358;2023-03-14T11:56:28;4.33;;;2.77;;
6394;SDS011;3230;42.588;23.358;2023-03-14T12:02:50;2.73;;;2.50;;
6394;SDS011;3230;42.588;23.358;2023-03-14T12:05:28;6.20;;;4.60;;
6394;SDS011;3230;42.588;23.358;2023-03-14T12:10:37;3.70;;;2.30;;
6394;SDS011;3230;42.588;23.358;2023-03-14T12:13:10;4.07;;;2.33;;
6394;SDS011;3230;42.588;23.358;2023-03-14T12:15:39;7.70;;;2.40;;
6394;SDS011;3230;42.588;23.358;2023-03-14T12:20:55;2.70;;;2.30;;
6394;SDS011;3230;42.588;23.358;2023-03-14T12:23:23;9.63;;;4.03;;
6394;SDS011;3230;42.588;23.358;2023-03-14T12:31:46;3.40;;;2.67;;
6394;SDS011;3230;42.588;23.358;2023-03-14T12:42:11;3.53;;;2.50;;
6394;SDS011;3230;42.588;23.358;2023-03-14T12:45:43;36.37;;;18.10;;
6394;SDS011;3230;42.588;23.358;2023-03-14T12:50:25;4.63;;;2.67;;
6394;SDS011;3230;42.588;23.358;2023-03-14T12:55:46;5.00;;;2.90;;
6394;SDS011;3230;42.588;23.358;2023-03-14T13:01:03;5.00;;;2.33;;
6394;SDS011;3230;42.588;23.358;2023-03-14T13:04:04;4.83;;;2.03;;
6394;SDS011;3230;42.588;23.358;2023-03-14T13:11:54;2.93;;;2.40;;
6394;SDS011;3230;42.588;23.358;2023-03-14T13:14:21;4.03;;;2.40;;
6394;SDS011;3230;42.588;23.358;2023-03-14T13:16:48;3.03;;;2.33;;
6394;SDS011;3230;42.588;23.358;2023-03-14T13:19:18;2.50;;;2.10;;
6394;SDS011;3230;42.588;23.358;2023-03-14T13:21:48;5.60;;;2.30;;
6394;SDS011;3230;42.588;23.358;2023-03-14T13:24:25;2.43;;;2.17;;
6394;SDS011;3230;42.588;23.358;2023-03-14T13:26:52;2.50;;;2.00;;
6394;SDS011;3230;42.588;23.358;2023-03-14T13:31:53;2.33;;;2.10;;
6394;SDS011;3230;42.588;23.358;2023-03-14T13:34:24;4.80;;;2.70;;
6394;SDS011;3230;42.588;23.358;2023-03-14T13:36:54;3.90;;;2.37;;
6394;SDS011;3230;42.588;23.358;2023-03-14T13:39:20;8.17;;;2.03;;
6394;SDS011;3230;42.588;23.358;2023-03-14T13:41:51;8.20;;;2.53;;
6394;SDS011;3230;42.588;23.358;2023-03-14T13:44:30;3.77;;;2.17;;
6394;SDS011;3230;42.588;23.358;2023-03-14T13:47:03;2.77;;;2.00;;
6394;SDS011;3230;42.588;23.358;2023-03-14T13:49:31;6.70;;;2.50;;
6394;SDS011;3230;42.588;23.358;2023-03-14T13:52:00;2.60;;;1.90;;
6394;SDS011;3230;42.588;23.358;2023-03-14T13:54:26;4.00;;;1.90;;
6394;SDS011;3230;42.588;23.358;2023-03-14T13:57:26;4.80;;;2.13;;
6394;SDS011;3230;42.588;23.358;2023-03-14T13:59:45;2.57;;;1.93;;
6394;SDS011;3230;42.588;23.358;2023-03-14T14:02:25;5.87;;;2.30;;
6394;SDS011;3230;42.588;23.358;2023-03-14T14:04:53;4.80;;;2.37;;
6394;SDS011;3230;42.588;23.358;2023-03-14T14:07:18;5.17;;;2.40;;
6394;SDS011;3230;42.588;23.358;2023-03-14T14:09:46;5.80;;;2.53;;
6394;SDS011;3230;42.588;23.358;2023-03-14T14:12:25;2.80;;;2.07;;
6394;SDS011;3230;42.588;23.358;2023-03-14T14:14:56;3.90;;;2.17;;
6394;SDS011;3230;42.588;23.358;2023-03-14T14:17:28;6.23;;;2.40;;
6394;SDS011;3230;42.588;23.358;2023-03-14T14:19:57;2.80;;;2.13;;
6394;SDS011;3230;42.588;23.358;2023-03-14T14:22:25;5.07;;;2.27;;
6394;SDS011;3230;42.588;23.358;2023-03-14T14:24:51;2.20;;;2.00;;
6394;SDS011;3230;42.588;23.358;2023-03-14T14:27:23;2.07;;;1.80;;
6394;SDS011;3230;42.588;23.358;2023-03-14T14:30:01;3.10;;;2.40;;
6394;SDS011;3230;42.588;23.358;2023-03-14T14:32:38;2.43;;;1.80;;
6394;SDS011;3230;42.588;23.358;2023-03-14T14:35:05;5.10;;;2.57;;
6394;SDS011;3230;42.588;23.358;2023-03-14T14:37:40;2.90;;;1.90;;
6394;SDS011;3230;42.588;23.358;2023-03-14T14:40:08;3.17;;;2.23;;
6394;SDS011;3230;42.588;23.358;2023-03-14T14:42:41;1.83;;;1.70;;
6394;SDS011;3230;42.588;23.358;2023-03-14T14:45:09;3.50;;;2.03;;
6394;SDS011;3230;42.588;23.358;2023-03-14T14:48:14;2.23;;;1.90;;
6394;SDS011;3230;42.588;23.358;2023-03-14T14:50:38;3.00;;;2.20;;
6394;SDS011;3230;42.588;23.358;2023-03-14T14:55:43;11.50;;;2.60;;
6394;SDS011;3230;42.588;23.358;2023-03-14T15:00:49;16.23;;;4.57;;
6394;SDS011;3230;42.588;23.358;2023-03-14T15:03:20;16.00;;;7.50;;
6394;SDS011;3230;42.588;23.358;2023-03-14T15:05:46;3.57;;;2.70;;
6394;SDS011;3230;42.588;23.358;2023-03-14T15:08:11;4.30;;;2.10;;
6394;SDS011;3230;42.588;23.358;2023-03-14T15:10:37;2.90;;;2.33;;
6394;SDS011;3230;42.588;23.358;2023-03-14T15:13:03;3.00;;;2.30;;
6394;SDS011;3230;42.588;23.358;2023-03-14T15:15:28;7.70;;;2.57;;
6394;SDS011;3230;42.588;23.358;2023-03-14T15:17:54;2.90;;;1.80;;
6394;SDS011;3230;42.588;23.358;2023-03-14T15:20:19;15.17;;;4.80;;
6394;SDS011;3230;42.588;23.358;2023-03-14T15:22:48;5.70;;;2.50;;
6394;SDS011;3230;42.588;23.358;2023-03-14T15:25:13;3.07;;;1.87;;
6394;SDS011;3230;42.588;23.358;2023-03-14T15:27:39;2.10;;;1.90;;
6394;SDS011;3230;42.588;23.358;2023-03-14T15:30:11;12.27;;;2.20;;
6394;SDS011;3230;42.588;23.358;2023-03-14T15:32:38;2.50;;;2.13;;
6394;SDS011;3230;42.588;23.358;2023-03-14T15:35:03;2.53;;;2.10;;
6394;SDS011;3230;42.588;23.358;2023-03-14T15:37:29;23.47;;;3.20;;
6394;SDS011;3230;42.588;23.358;2023-03-14T15:39:55;4.03;;;2.47;;
6394;SDS011;3230;42.588;23.358;2023-03-14T15:42:23;4.00;;;2.40;;
6394;SDS011;3230;42.588;23.358;2023-03-14T15:44:48;8.40;;;4.00;;
6394;SDS011;3230;42.588;23.358;2023-03-14T15:47:14;10.00;;;5.40;;
6394;SDS011;3230;42.588;23.358;2023-03-14T15:49:39;19.83;;;8.70;;
6394;SDS011;3230;42.588;23.358;2023-03-14T15:52:05;7.10;;;3.70;;
6394;SDS011;3230;42.588;23.358;2023-03-14T15:54:32;6.07;;;3.17;;
6394;SDS011;3230;42.588;23.358;2023-03-14T15:56:58;6.00;;;2.93;;
6394;SDS011;3230;42.588;23.358;2023-03-14T15:59:24;11.03;;;6.63;;
6394;SDS011;3230;42.588;23.358;2023-03-14T16:01:50;23.40;;;12.30;;
6394;SDS011;3230;42.588;23.358;2023-03-14T16:04:16;23.63;;;10.57;;
6394;SDS011;3230;42.588;23.358;2023-03-14T16:06:41;19.67;;;11.00;;
6394;SDS011;3230;42.588;23.358;2023-03-14T16:09:09;25.87;;;12.70;;
6394;SDS011;3230;42.588;23.358;2023-03-14T16:11:38;23.60;;;10.70;;
6394;SDS011;3230;42.588;23.358;2023-03-14T16:14:03;10.53;;;5.60;;
6394;SDS011;3230;42.588;23.358;2023-03-14T16:16:28;9.50;;;5.30;;
6394;SDS011;3230;42.588;23.358;2023-03-14T16:18:54;9.20;;;4.90;;
6394;SDS011;3230;42.588;23.358;2023-03-14T16:21:19;4.47;;;2.63;;